createdAt,value
2022-10-02T00:00:12.966Z,3.78
2022-10-02T00:02:55.635Z,3.72
2022-10-02T00:05:35.351Z,3.63
2022-10-02T00:08:10.310Z,3.45
2022-10-02T00:10:40.972Z,4.37
2022-10-02T00:13:12.078Z,4.10
2022-10-02T00:15:46.295Z,3.83
2022-10-02T00:18:16.114Z,4.40
2022-10-02T00:21:15.703Z,3.60
2022-10-02T00:23:59.286Z,3.25
2022-10-02T00:26:35.810Z,4.75
2022-10-02T00:29:23.806Z,3.88
2022-10-02T00:31:50.464Z,4.03
2022-10-02T00:34:26.050Z,3.97
2022-10-02T00:37:21.351Z,3.85
2022-10-02T00:40:00.206Z,3.90
2022-10-02T00:43:05.543Z,4.07
2022-10-02T00:46:02.419Z,4.10
2022-10-02T00:48:38.311Z,4.13
2022-10-02T00:54:02.297Z,3.80
2022-10-02T00:56:51.325Z,3.97
2022-10-02T00:59:44.387Z,3.92
2022-10-02T01:02:33.908Z,3.95
2022-10-02T01:05:03.767Z,3.85
2022-10-02T01:07:30.760Z,3.80
2022-10-02T01:09:57.880Z,4.15
2022-10-02T01:12:24.668Z,4.05
2022-10-02T01:14:57.716Z,3.80
2022-10-02T01:17:31.453Z,3.60
2022-10-02T01:20:01.436Z,4.38
2022-10-02T01:22:37.397Z,3.78
2022-10-02T01:25:06.529Z,3.90
2022-10-02T01:27:38.944Z,3.65
2022-10-02T01:30:09.402Z,4.13
2022-10-02T01:32:40.989Z,3.83
2022-10-02T01:35:08.814Z,4.53
2022-10-02T01:37:38.640Z,3.70
2022-10-02T01:40:08.380Z,3.92
2022-10-02T01:42:35.814Z,4.38
2022-10-02T01:45:05.732Z,4.20
2022-10-02T01:47:51.017Z,4.65
2022-10-02T01:50:43.624Z,4.13
2022-10-02T01:53:33.604Z,4.72
2022-10-02T01:56:31.304Z,3.90
2022-10-02T01:59:17.856Z,4.80
2022-10-02T02:02:06.672Z,4.65
2022-10-02T02:04:40.724Z,4.50
2022-10-02T02:07:13.277Z,4.47
2022-10-02T02:10:08.749Z,4.72
2022-10-02T02:12:42.338Z,4.65
2022-10-02T02:15:49.106Z,5.20
2022-10-02T02:18:35.608Z,4.28
2022-10-02T02:21:24.746Z,4.68
2022-10-02T02:23:53.124Z,4.57
2022-10-02T02:26:20.667Z,4.25
2022-10-02T02:28:53.064Z,4.88
2022-10-02T02:31:24.448Z,5.15
2022-10-02T02:34:00.393Z,4.20
2022-10-02T02:36:36.549Z,4.40
2022-10-02T02:39:07.943Z,5.18
2022-10-02T02:41:43.892Z,4.45
2022-10-02T02:44:23.118Z,4.38
2022-10-02T02:46:57.979Z,4.85
2022-10-02T02:49:26.704Z,4.67
2022-10-02T02:51:55.707Z,4.97
2022-10-02T02:54:30.877Z,4.28
2022-10-02T02:56:59.851Z,4.88
2022-10-02T02:59:30.094Z,5.43
2022-10-02T03:01:57.042Z,5.03
2022-10-02T03:04:24.275Z,4.70
2022-10-02T03:06:57.059Z,4.82
2022-10-02T03:09:25.988Z,4.90
2022-10-02T03:12:02.692Z,4.82
2022-10-02T03:14:55.512Z,4.78
2022-10-02T03:18:04.064Z,4.40
2022-10-02T03:20:47.437Z,4.75
2022-10-02T03:23:19.906Z,4.88
2022-10-02T03:25:59.934Z,4.70
2022-10-02T03:28:55.956Z,5.40
2022-10-02T03:31:26.538Z,4.60
2022-10-02T03:33:54.092Z,4.85
2022-10-02T03:36:22.353Z,4.43
2022-10-02T03:39:12.653Z,4.80
2022-10-02T03:41:38.432Z,4.85
2022-10-02T03:44:05.101Z,4.88
2022-10-02T03:46:31.767Z,5.07
2022-10-02T03:48:58.560Z,5.05
2022-10-02T03:51:25.214Z,5.50
2022-10-02T03:53:52.596Z,5.20
2022-10-02T03:56:44.253Z,4.97
2022-10-02T03:59:15.690Z,4.88
2022-10-02T04:01:49.264Z,4.60
2022-10-02T04:04:22.518Z,5.30
2022-10-02T04:07:06.163Z,5.20
2022-10-02T04:09:59.554Z,4.80
2022-10-02T04:12:32.919Z,4.88
2022-10-02T04:15:03.202Z,4.25
2022-10-02T04:17:41.095Z,5.28
2022-10-02T04:20:21.306Z,4.38
2022-10-02T04:23:01.083Z,4.15
2022-10-02T04:25:38.585Z,5.13
2022-10-02T04:28:13.359Z,4.20
2022-10-02T04:30:40.057Z,4.45
2022-10-02T04:33:19.568Z,4.18
2022-10-02T04:35:54.820Z,4.72
2022-10-02T04:38:51.714Z,5.30
2022-10-02T04:41:45.414Z,4.35
2022-10-02T04:44:27.118Z,4.35
2022-10-02T04:47:24.189Z,3.65
2022-10-02T04:52:38.914Z,4.43
2022-10-02T04:55:25.938Z,3.67
2022-10-02T04:58:06.017Z,4.22
2022-10-02T05:00:46.570Z,3.58
2022-10-02T05:03:13.185Z,4.32
2022-10-02T05:05:58.320Z,3.17
2022-10-02T05:08:59.389Z,3.97
2022-10-02T05:11:44.548Z,3.92
2022-10-02T05:14:26.394Z,3.80
2022-10-02T05:17:13.979Z,4.00
2022-10-02T05:19:58.803Z,3.80
2022-10-02T05:22:46.094Z,4.07
2022-10-02T05:25:15.736Z,4.30
2022-10-02T05:27:48.598Z,3.13
2022-10-02T05:30:18.365Z,3.92
2022-10-02T05:33:02.201Z,3.97
2022-10-02T05:35:44.309Z,3.63
2022-10-02T05:38:51.429Z,4.10
2022-10-02T05:44:09.127Z,3.72
2022-10-02T05:46:43.745Z,3.75
2022-10-02T05:49:27.683Z,3.88
2022-10-02T05:52:00.476Z,3.63
2022-10-02T05:54:47.440Z,3.85
2022-10-02T05:57:25.697Z,3.55
2022-10-02T05:59:56.964Z,3.50
2022-10-02T06:02:52.767Z,4.38
2022-10-02T06:05:25.890Z,3.83
2022-10-02T06:07:58.518Z,3.72
2022-10-02T06:10:40.787Z,3.88
2022-10-02T06:13:26.524Z,3.72
2022-10-02T06:16:16.822Z,3.40
2022-10-02T06:18:48.853Z,3.90
2022-10-02T06:21:39.552Z,4.05
2022-10-02T06:24:15.044Z,4.35
2022-10-02T06:26:48.499Z,4.45
2022-10-02T06:29:44.165Z,3.92
2022-10-02T06:32:18.362Z,4.43
2022-10-02T06:34:47.934Z,4.40
2022-10-02T06:37:33.603Z,4.15
2022-10-02T06:40:03.271Z,4.93
2022-10-02T06:42:47.024Z,4.60
2022-10-02T06:45:52.303Z,4.55
2022-10-02T06:48:37.529Z,5.05
2022-10-02T06:51:12.988Z,5.00
2022-10-02T06:54:10.974Z,5.00
2022-10-02T06:57:02.193Z,5.38
2022-10-02T07:00:02.851Z,5.40
2022-10-02T07:03:03.961Z,5.25
2022-10-02T07:05:58.127Z,4.97
2022-10-02T07:08:54.048Z,6.03
2022-10-02T07:11:31.086Z,5.15
2022-10-02T07:14:19.227Z,6.07
2022-10-02T07:17:14.540Z,5.68
2022-10-02T07:19:55.664Z,6.28
2022-10-02T07:22:44.652Z,5.82
2022-10-02T07:25:42.778Z,5.22
2022-10-02T07:28:32.405Z,5.82
2022-10-02T07:31:21.406Z,5.72
2022-10-02T07:34:31.544Z,6.50
2022-10-02T07:37:05.972Z,5.82
2022-10-02T07:39:51.183Z,6.05
2022-10-02T07:42:57.028Z,6.60
2022-10-02T10:01:01.748Z,5.88
2022-10-02T10:03:28.331Z,6.18
2022-10-02T10:06:33.179Z,5.97
2022-10-02T10:09:17.336Z,6.00
2022-10-02T10:12:00.053Z,5.72
2022-10-02T10:14:52.639Z,5.60
2022-10-02T10:26:04.849Z,5.57
2022-10-02T10:28:57.780Z,4.55
2022-10-02T10:31:36.834Z,4.63
2022-10-02T10:34:39.197Z,5.10
2022-10-02T10:37:15.841Z,3.97
2022-10-02T10:40:27.393Z,3.38
2022-10-02T10:43:16.957Z,4.00
2022-10-02T10:46:20.635Z,4.40
2022-10-02T10:49:02.505Z,3.42
2022-10-02T10:51:54.366Z,3.40
2022-10-02T10:54:56.372Z,3.92
2022-10-02T10:58:00.488Z,2.40
2022-10-02T11:01:11.254Z,3.05
2022-10-02T11:04:15.577Z,3.10
2022-10-02T11:07:03.630Z,3.85
2022-10-02T11:09:54.920Z,3.80
2022-10-02T11:13:12.102Z,3.67
2022-10-02T11:15:59.642Z,4.57
2022-10-02T11:19:03.874Z,4.82
2022-10-02T11:21:43.750Z,5.05
2022-10-02T11:24:47.948Z,4.95
2022-10-02T11:27:25.851Z,5.75
2022-10-02T11:35:30.205Z,5.68
2022-10-02T11:38:06.336Z,5.68
2022-10-02T11:40:54.334Z,4.75
2022-10-02T11:43:43.807Z,5.65
2022-10-02T11:46:41.615Z,5.65
2022-10-02T11:49:30.310Z,4.40
2022-10-02T11:52:15.703Z,4.82
2022-10-02T11:54:56.002Z,4.73
2022-10-02T11:57:41.165Z,4.47
2022-10-02T12:00:13.524Z,4.40
2022-10-02T12:03:04.893Z,4.60
2022-10-02T12:05:56.677Z,4.22
2022-10-02T12:08:54.329Z,4.40
2022-10-02T12:11:54.987Z,4.00
2022-10-02T12:14:35.841Z,4.25
2022-10-02T12:17:25.282Z,3.95
2022-10-02T12:20:24.619Z,4.43
2022-10-02T12:23:13.776Z,4.32
2022-10-02T12:26:05.292Z,4.57
2022-10-02T12:28:58.461Z,4.18
2022-10-02T12:31:32.189Z,4.43
2022-10-02T12:34:34.435Z,3.58
2022-10-02T12:37:07.969Z,3.67
2022-10-02T12:39:57.626Z,3.67
2022-10-02T12:42:39.340Z,3.88
2022-10-02T12:45:22.712Z,3.40
2022-10-02T12:48:14.438Z,3.30
2022-10-02T12:51:04.709Z,3.60
2022-10-02T12:53:57.788Z,2.80
2022-10-02T12:56:44.553Z,2.70
2022-10-02T12:59:11.203Z,3.05
2022-10-02T13:02:08.595Z,3.30
2022-10-02T13:04:53.920Z,2.70
2022-10-02T13:07:39.505Z,2.50
2022-10-02T13:10:17.022Z,2.45
2022-10-02T13:13:24.338Z,2.90
2022-10-02T13:16:17.545Z,2.60
2022-10-02T13:18:52.581Z,2.80
2022-10-02T13:21:31.617Z,2.38
2022-10-02T13:24:04.238Z,3.55
2022-10-02T13:26:38.520Z,2.38
2022-10-02T13:29:08.120Z,2.60
2022-10-02T13:31:35.044Z,1.75
2022-10-02T13:34:26.702Z,2.20
2022-10-02T13:37:17.478Z,2.28
2022-10-02T13:40:11.934Z,2.00
2022-10-02T13:42:47.384Z,2.22
2022-10-02T13:45:40.610Z,2.63
2022-10-02T13:48:22.326Z,2.20
2022-10-02T13:51:02.085Z,2.58
2022-10-02T13:53:45.861Z,2.60
2022-10-02T13:56:40.461Z,2.50
2022-10-02T13:59:29.987Z,2.47
2022-10-02T14:02:11.729Z,2.50
2022-10-02T14:04:53.724Z,2.67
2022-10-02T14:07:37.688Z,3.22
2022-10-02T14:10:43.037Z,2.47
2022-10-02T14:13:21.730Z,3.10
2022-10-02T14:16:13.140Z,2.30
2022-10-02T14:18:50.688Z,2.72
2022-10-02T14:21:26.349Z,2.47
2022-10-02T14:26:28.685Z,2.65
2022-10-02T14:29:45.967Z,2.55
2022-10-02T14:32:22.562Z,1.90
2022-10-02T14:35:00.770Z,2.00
2022-10-02T14:37:43.230Z,2.25
2022-10-02T14:40:14.405Z,2.47
2022-10-02T14:42:43.684Z,1.98
2022-10-02T14:45:16.172Z,2.67
2022-10-02T14:48:02.327Z,2.63
2022-10-02T14:53:33.877Z,2.00
2022-10-02T14:56:09.081Z,2.40
2022-10-02T14:59:09.077Z,2.20
2022-10-02T15:02:04.422Z,2.08
2022-10-02T15:04:52.358Z,1.98
2022-10-02T15:07:22.643Z,2.00
2022-10-02T15:09:57.731Z,2.40
2022-10-02T15:12:29.904Z,2.45
2022-10-02T15:15:07.119Z,2.60
2022-10-02T15:17:47.054Z,2.42
2022-10-02T15:20:32.377Z,2.33
2022-10-02T15:23:09.994Z,1.90
2022-10-02T15:26:02.122Z,2.10
2022-10-02T15:28:42.311Z,2.42
2022-10-02T15:31:44.242Z,2.65
2022-10-02T15:34:38.563Z,2.58
2022-10-02T15:37:29.640Z,2.33
2022-10-02T15:40:02.501Z,2.47
2022-10-02T15:42:57.547Z,2.35
2022-10-02T15:45:36.051Z,3.03
2022-10-02T15:48:20.834Z,2.30
2022-10-02T15:50:56.944Z,2.58
2022-10-02T15:54:07.644Z,2.65
2022-10-02T15:56:37.367Z,2.13
2022-10-02T15:59:12.031Z,2.40
2022-10-02T16:02:06.463Z,2.35
2022-10-02T16:04:54.574Z,2.30
2022-10-02T16:07:31.972Z,2.50
2022-10-02T16:10:23.385Z,2.70
2022-10-02T16:13:27.623Z,3.08
2022-10-02T16:16:08.414Z,2.92
2022-10-02T16:18:48.731Z,2.80
2022-10-02T16:21:52.060Z,2.92
2022-10-02T16:24:45.219Z,3.05
2022-10-02T16:27:27.044Z,3.03
2022-10-02T16:30:14.321Z,2.95
2022-10-02T16:33:17.436Z,3.00
2022-10-02T16:36:06.842Z,3.20
2022-10-02T16:38:47.354Z,3.42
2022-10-02T16:41:35.959Z,3.75
2022-10-02T16:44:26.663Z,3.47
2022-10-02T16:47:05.355Z,3.75
2022-10-02T16:50:10.324Z,3.58
2022-10-02T16:52:56.011Z,3.55
2022-10-02T16:55:31.553Z,2.67
2022-10-02T16:58:29.333Z,3.20
2022-10-02T17:01:03.717Z,3.08
2022-10-02T17:04:04.515Z,3.10
2022-10-02T17:06:54.862Z,3.50
2022-10-02T17:09:47.376Z,3.33
2022-10-02T17:12:44.192Z,3.28
2022-10-02T17:15:33.834Z,3.42
2022-10-02T17:18:12.774Z,3.38
2022-10-02T17:20:54.912Z,3.30
2022-10-02T17:23:50.471Z,2.90
2022-10-02T17:26:34.942Z,2.97
2022-10-02T17:29:15.247Z,3.30
2022-10-02T17:31:53.780Z,3.78
2022-10-02T17:34:25.218Z,3.35
2022-10-02T17:37:06.500Z,3.65
2022-10-02T17:39:51.748Z,3.60
2022-10-02T17:42:42.480Z,3.92
2022-10-02T17:45:31.881Z,3.60
2022-10-02T17:48:08.610Z,3.50
2022-10-02T17:50:53.340Z,3.58
2022-10-02T17:54:05.436Z,3.60
2022-10-02T17:56:58.055Z,3.60
2022-10-02T17:59:48.760Z,3.55
2022-10-02T18:02:48.862Z,3.58
2022-10-02T18:05:34.301Z,3.70
2022-10-02T18:08:16.539Z,3.90
2022-10-02T18:11:07.606Z,3.75
2022-10-02T18:13:37.312Z,3.97
2022-10-02T18:16:13.340Z,4.30
2022-10-02T18:18:58.545Z,3.72
2022-10-02T18:21:43.280Z,4.10
2022-10-02T18:24:19.508Z,3.75
2022-10-02T18:26:56.992Z,4.55
2022-10-02T18:29:57.166Z,3.80
2022-10-02T18:33:00.805Z,3.95
2022-10-02T18:35:30.508Z,4.50
2022-10-02T18:38:41.478Z,3.90
2022-10-02T18:41:36.379Z,3.83
2022-10-02T18:44:30.875Z,4.47
2022-10-02T18:47:19.482Z,4.40
2022-10-02T18:50:11.660Z,4.55
2022-10-02T18:53:18.122Z,4.72
2022-10-02T18:55:53.234Z,5.22
2022-10-02T18:58:31.610Z,3.88
2022-10-02T19:01:13.300Z,4.10
2022-10-02T19:03:54.826Z,4.15
2022-10-02T19:06:34.719Z,4.35
2022-10-02T19:09:07.737Z,4.03
2022-10-02T19:11:43.056Z,4.70
2022-10-02T19:14:14.027Z,4.10
2022-10-02T19:16:55.908Z,4.97
2022-10-02T19:19:23.559Z,4.20
2022-10-02T19:21:54.894Z,4.38
2022-10-02T19:24:28.343Z,4.18
2022-10-02T19:26:59.678Z,4.75
2022-10-02T19:29:50.541Z,4.75
2022-10-02T19:32:40.823Z,4.30
2022-10-02T19:35:32.879Z,5.03
2022-10-02T19:38:08.493Z,4.13
2022-10-02T19:40:36.111Z,4.32
2022-10-02T19:43:07.899Z,4.45
2022-10-02T19:45:40.659Z,4.10
2022-10-02T19:48:10.326Z,4.57
2022-10-02T19:50:41.153Z,4.35
2022-10-02T19:53:23.653Z,4.28
2022-10-02T19:55:55.981Z,4.15
2022-10-02T19:58:34.387Z,4.55
2022-10-02T20:01:01.687Z,4.28
2022-10-02T20:03:30.099Z,4.78
2022-10-02T20:06:18.554Z,4.72
2022-10-02T20:08:51.360Z,4.35
2022-10-02T20:11:23.253Z,4.22
2022-10-02T20:13:57.065Z,4.13
2022-10-02T20:16:25.376Z,4.90
2022-10-02T20:18:52.552Z,4.18
2022-10-02T20:21:41.798Z,4.25
2022-10-02T20:24:17.337Z,4.68
2022-10-02T20:26:47.510Z,4.32
2022-10-02T20:29:22.841Z,4.72
2022-10-02T20:32:19.257Z,4.93
2022-10-02T20:35:09.256Z,4.38
2022-10-02T20:37:37.015Z,4.72
2022-10-02T20:40:08.564Z,5.10
2022-10-02T20:43:05.347Z,4.85
2022-10-02T20:45:59.284Z,4.80
2022-10-02T20:48:49.239Z,4.72
2022-10-02T20:51:43.274Z,4.97
2022-10-02T20:54:28.904Z,5.15
2022-10-02T20:57:17.038Z,5.50
2022-10-02T21:00:17.025Z,5.10
2022-10-02T21:03:22.682Z,5.03
2022-10-02T21:06:31.374Z,4.70
2022-10-02T21:09:19.931Z,5.00
2022-10-02T21:12:08.221Z,4.70
2022-10-02T21:15:04.266Z,4.68
2022-10-02T21:17:47.329Z,5.10
2022-10-02T21:20:46.151Z,4.32
2022-10-02T21:23:34.494Z,5.10
2022-10-02T21:26:11.510Z,4.50
2022-10-02T21:29:00.962Z,5.40
2022-10-02T21:31:50.485Z,5.75
2022-10-02T21:34:54.941Z,4.45
2022-10-02T21:37:44.749Z,5.10
2022-10-02T21:40:23.649Z,5.22
2022-10-02T21:43:11.873Z,5.40
2022-10-02T21:46:14.133Z,5.20
2022-10-02T21:48:59.310Z,6.32
2022-10-02T21:51:59.341Z,5.43
2022-10-02T21:55:03.710Z,5.57
2022-10-02T21:57:48.861Z,5.03
2022-10-02T22:00:21.950Z,5.40
2022-10-02T22:02:57.404Z,6.03
2022-10-02T22:06:01.324Z,5.50
2022-10-02T22:08:48.274Z,5.57
2022-10-02T22:11:39.482Z,6.10
2022-10-02T22:14:18.724Z,5.53
2022-10-02T22:17:10.906Z,5.53
2022-10-02T22:19:53.169Z,5.07
2022-10-02T22:22:37.533Z,5.30
2022-10-02T22:25:12.325Z,5.22
2022-10-02T22:28:21.828Z,5.38
2022-10-02T22:30:54.454Z,5.85
2022-10-02T22:33:45.075Z,5.82
2022-10-02T22:36:32.375Z,6.30
2022-10-02T22:39:22.277Z,6.10
2022-10-02T22:42:12.089Z,5.85
2022-10-02T22:44:56.589Z,5.20
2022-10-02T22:47:46.690Z,4.90
2022-10-02T22:50:29.009Z,5.47
2022-10-02T22:53:00.825Z,5.80
2022-10-02T22:55:32.446Z,5.68
2022-10-02T22:58:24.117Z,6.72
2022-10-02T23:01:13.804Z,6.00
2022-10-02T23:03:53.045Z,6.03
2022-10-02T23:06:29.183Z,5.38
2022-10-02T23:09:16.469Z,6.63
2022-10-02T23:12:08.548Z,5.55
2022-10-02T23:14:59.208Z,6.38
2022-10-02T23:17:43.170Z,6.32
2022-10-02T23:20:13.980Z,6.20
2022-10-02T23:22:50.144Z,5.90
2022-10-02T23:25:41.489Z,6.00
2022-10-02T23:28:16.653Z,5.78
2022-10-02T23:30:49.136Z,7.03
2022-10-02T23:33:26.966Z,6.05
2022-10-02T23:36:14.117Z,6.88
2022-10-02T23:38:50.049Z,6.35
2022-10-02T23:41:19.492Z,6.25
2022-10-02T23:44:03.130Z,5.80
2022-10-02T23:46:43.634Z,6.00
2022-10-02T23:49:11.643Z,6.30
2022-10-02T23:51:53.982Z,6.38
2022-10-02T23:54:44.976Z,7.10
2022-10-02T23:57:26.596Z,5.78
